Time;durP1;ratioP1;P1;durP2;ratioP2;P2;SDS_P1;SDS_P2;PMS_P1;PMS_P2;Temp;Humidity;BMP_temperature;BMP_pressure;BME280_temperature;BME280_humidity;BME280_pressure;Samples;Min_cycle;Max_cycle;Signal;HPM_P1;HPM_P2
2023/08/18 00:01:19;;;;;;;1.75;1.45;;;;;;;19.29;89.46;101943.31;6057438;29;20237;-68
2023/08/18 00:04:40;;;;;;;1.27;1.17;;;;;;;19.20;89.30;101947.03;6049816;29;20245;-68
2023/08/18 00:08:01;;;;;;;2.47;1.58;;;;;;;19.23;89.30;101949.44;6049543;29;20570;-67
2023/08/18 00:11:23;;;;;;;1.73;0.98;;;;;;;19.26;89.07;101943.63;6045672;29;21750;-67
2023/08/18 00:14:44;;;;;;;2.15;1.10;;;;;;;19.29;88.77;101953.41;6047838;29;20237;-67
2023/08/18 00:18:05;;;;;;;1.08;0.98;;;;;;;19.29;88.93;101947.91;6052272;29;20788;-68
2023/08/18 00:21:26;;;;;;;1.30;0.80;;;;;;;19.28;88.75;101947.06;6053562;29;20244;-68
2023/08/18 00:24:47;;;;;;;1.42;1.02;;;;;;;19.28;88.82;101952.53;6040853;29;20221;-67
2023/08/18 00:28:09;;;;;;;1.65;1.55;;;;;;;19.24;88.52;101948.41;6053034;29;20253;-67
2023/08/18 00:31:30;;;;;;;2.90;1.38;;;;;;;19.24;88.66;101945.69;6059073;29;20241;-68
2023/08/18 00:34:51;;;;;;;1.75;0.57;;;;;;;19.32;88.40;101948.44;6024404;29;22085;-68
2023/08/18 00:38:14;;;;;;;7.03;1.48;;;;;;;19.32;88.24;101928.44;6052944;29;20237;-66
2023/08/18 00:41:35;;;;;;;1.35;1.27;;;;;;;19.29;88.25;101929.66;6053610;29;20241;-68
2023/08/18 00:44:57;;;;;;;1.45;1.35;;;;;;;19.24;88.36;101923.81;6049998;29;20665;-67
2023/08/18 00:48:19;;;;;;;0.80;0.80;;;;;;;19.28;88.62;101927.06;6054606;29;20675;-67
2023/08/18 00:51:41;;;;;;;1.50;0.82;;;;;;;19.21;88.69;101918.69;6043982;29;20566;-67
2023/08/18 00:55:04;;;;;;;2.10;1.20;;;;;;;19.15;89.30;101917.47;6039303;29;20237;-67
2023/08/18 00:58:28;;;;;;;1.75;0.80;;;;;;;19.17;89.59;101920.00;6049515;29;20237;-67
2023/08/18 01:01:50;;;;;;;1.00;1.00;;;;;;;19.14;89.63;101912.16;6040480;29;20233;-68
2023/08/18 01:05:12;;;;;;;2.58;0.80;;;;;;;19.12;90.04;101909.59;6055190;29;20236;-67
2023/08/18 01:08:33;;;;;;;3.10;1.20;;;;;;;19.14;90.26;101902.09;6041770;29;20229;-67
2023/08/18 01:12:03;;;;;;;0.88;0.77;;;;;;;19.12;90.50;101911.47;6042029;29;20245;-67
2023/08/18 01:15:30;;;;;;;2.58;0.95;;;;;;;19.17;90.71;101910.97;6054309;29;20533;-68
2023/08/18 01:18:54;;;;;;;1.38;0.75;;;;;;;19.15;91.14;101911.97;6038351;29;20252;-67
2023/08/18 01:22:18;;;;;;;1.33;1.23;;;;;;;19.15;91.28;101908.38;6037676;29;20238;-67
2023/08/18 01:25:40;;;;;;;4.43;1.25;;;;;;;19.10;91.41;101905.31;6034000;29;20225;-68
2023/08/18 01:29:01;;;;;;;1.80;1.45;;;;;;;19.09;91.61;101903.59;6033408;29;20335;-68
2023/08/18 01:32:26;;;;;;;1.95;1.40;;;;;;;19.08;91.85;101913.69;6060973;29;20238;-67
2023/08/18 01:35:48;;;;;;;1.52;1.17;;;;;;;19.00;92.24;101913.63;6049418;29;20541;-68
2023/08/18 01:39:11;;;;;;;2.25;0.90;;;;;;;19.02;92.29;101908.03;6042027;29;20233;-68
2023/08/18 01:42:34;;;;;;;3.05;1.27;;;;;;;18.97;92.77;101911.25;6044859;29;20586;-68
2023/08/18 01:45:55;;;;;;;2.05;1.10;;;;;;;19.00;93.33;101908.16;6039767;29;20328;-67
2023/08/18 01:49:16;;;;;;;1.70;1.20;;;;;;;19.06;93.06;101912.13;6051700;29;20237;-68
2023/08/18 01:52:37;;;;;;;1.52;1.08;;;;;;;19.06;93.41;101910.28;6051196;29;20771;-69
2023/08/18 01:56:00;;;;;;;1.23;1.10;;;;;;;19.07;93.33;101900.16;6046272;29;20320;-67
2023/08/18 01:59:22;;;;;;;2.20;1.63;;;;;;;19.12;93.51;101916.94;6047183;29;20238;-67
2023/08/18 02:02:43;;;;;;;1.80;1.20;;;;;;;19.06;93.50;101909.41;6044060;29;20241;-68
2023/08/18 02:06:04;;;;;;;2.28;1.08;;;;;;;18.97;93.96;101905.78;6049918;29;20511;-67
2023/08/18 02:09:28;;;;;;;1.50;1.30;;;;;;;18.94;94.39;101905.28;6049271;29;20511;-68
2023/08/18 02:12:49;;;;;;;2.05;1.67;;;;;;;19.03;94.50;101909.72;6056193;29;20241;-67
2023/08/18 02:16:11;;;;;;;3.03;1.20;;;;;;;18.96;94.81;101900.50;6013000;29;20297;-67
2023/08/18 02:19:32;;;;;;;1.73;1.38;;;;;;;19.02;94.74;101897.94;6035489;29;20233;-67
2023/08/18 02:22:53;;;;;;;1.40;1.10;;;;;;;19.08;94.64;101889.09;6052563;29;20229;-67
2023/08/18 02:26:14;;;;;;;3.55;1.25;;;;;;;19.07;94.98;101883.75;6058623;29;20256;-68
2023/08/18 02:29:35;;;;;;;2.72;1.95;;;;;;;19.11;95.06;101882.41;6040745;29;20245;-68
2023/08/18 02:32:58;;;;;;;3.08;1.65;;;;;;;19.07;95.23;101881.91;6048230;29;20872;-68
2023/08/18 02:36:19;;;;;;;2.42;1.30;;;;;;;19.10;95.12;101873.38;6055082;29;20233;-68
2023/08/18 02:39:40;;;;;;;1.60;1.10;;;;;;;19.15;95.21;101868.25;6020582;29;21673;-68
2023/08/18 02:43:00;;;;;;;1.45;1.15;;;;;;;19.11;95.55;101864.13;6053905;29;20244;-67
2023/08/18 02:46:21;;;;;;;1.23;1.13;;;;;;;19.12;95.47;101865.00;6039190;29;20261;-68
2023/08/18 02:49:46;;;;;;;1.35;1.25;;;;;;;19.13;95.74;101881.22;6041646;29;20233;-67
2023/08/18 02:53:07;;;;;;;2.53;1.13;;;;;;;19.04;96.09;101884.13;6047001;29;20236;-68
2023/08/18 02:56:28;;;;;;;1.50;1.40;;;;;;;19.08;96.15;101878.16;6056571;29;20237;-67
2023/08/18 02:59:51;;;;;;;3.00;1.75;;;;;;;19.06;96.56;101876.59;6037378;29;20256;-65
2023/08/18 03:03:12;;;;;;;4.15;1.88;;;;;;;19.08;96.86;101878.16;6020216;29;20229;-67
2023/08/18 03:06:34;;;;;;;2.10;1.10;;;;;;;19.10;97.11;101878.84;6051853;29;20330;-67
2023/08/18 03:09:55;;;;;;;3.47;2.55;;;;;;;18.99;97.15;101881.00;6052116;29;20225;-67
2023/08/18 03:13:16;;;;;;;3.30;1.42;;;;;;;18.98;97.72;101871.94;6055577;29;20233;-68
2023/08/18 03:16:37;;;;;;;1.35;1.25;;;;;;;18.96;98.19;101873.16;6057328;29;20245;-68
2023/08/18 03:19:57;;;;;;;2.47;1.48;;;;;;;18.96;98.48;101868.53;6038591;29;20229;-67
2023/08/18 03:23:19;;;;;;;1.52;1.42;;;;;;;18.93;98.49;101868.88;6035935;29;20241;-68
2023/08/18 03:26:40;;;;;;;3.80;1.85;;;;;;;18.79;99.04;101865.94;6053014;29;20229;-68
2023/08/18 03:30:05;;;;;;;3.65;2.13;;;;;;;18.74;99.52;101869.16;6037496;29;20234;-68
2023/08/18 03:33:27;;;;;;;5.38;2.10;;;;;;;18.73;100.00;101869.31;6041846;29;20225;-67
2023/08/18 03:36:47;;;;;;;2.95;1.88;;;;;;;18.63;100.00;101868.59;6046662;29;20941;-67
2023/08/18 03:40:11;;;;;;;5.30;2.00;;;;;;;18.66;100.00;101869.13;6056733;29;20229;-68
2023/08/18 03:43:32;;;;;;;3.65;2.25;;;;;;;18.64;100.00;101867.56;6058461;29;20249;-68
2023/08/18 03:46:54;;;;;;;2.25;1.58;;;;;;;18.60;100.00;101847.94;6031344;29;20287;-67
2023/08/18 03:50:15;;;;;;;2.83;2.22;;;;;;;18.61;100.00;101862.44;6039312;29;20245;-68
2023/08/18 03:53:37;;;;;;;4.38;2.33;;;;;;;18.57;100.00;101861.91;6035434;29;20344;-67
2023/08/18 03:57:00;;;;;;;4.22;3.10;;;;;;;18.61;100.00;101849.63;6070182;29;20690;-68
2023/08/18 04:00:20;;;;;;;3.50;2.08;;;;;;;18.60;100.00;101842.47;6033579;29;20237;-67
2023/08/18 04:03:43;;;;;;;2.40;2.20;;;;;;;18.59;100.00;101846.19;6054312;29;20258;-67
2023/08/18 04:07:05;;;;;;;1.77;1.67;;;;;;;18.53;100.00;101851.47;6046363;29;20623;-66
2023/08/18 04:10:25;;;;;;;3.72;2.38;;;;;;;18.59;100.00;101846.19;6047348;29;20320;-66
2023/08/18 04:13:48;;;;;;;5.10;2.13;;;;;;;18.56;100.00;101851.13;6051337;29;20547;-67
2023/08/18 04:17:09;;;;;;;3.03;2.60;;;;;;;18.67;100.00;101843.50;6055408;29;20613;-68
2023/08/18 04:20:31;;;;;;;4.10;2.08;;;;;;;18.74;100.00;101847.28;6037275;29;20233;-66
2023/08/18 04:23:52;;;;;;;2.42;2.17;;;;;;;18.79;100.00;101847.66;6035213;29;20249;-68
2023/08/18 04:27:13;;;;;;;2.13;1.92;;;;;;;18.79;100.00;101836.72;6040932;29;20237;-68
2023/08/18 04:30:37;;;;;;;7.00;2.40;;;;;;;18.85;100.00;101836.06;6033961;29;20229;-68
2023/08/18 04:33:58;;;;;;;4.15;2.15;;;;;;;18.84;100.00;101830.75;6058604;29;20655;-67
2023/08/18 04:37:20;;;;;;;3.20;2.50;;;;;;;18.87;100.00;101828.56;6056958;29;20882;-68
2023/08/18 04:40:42;;;;;;;4.50;3.67;;;;;;;18.78;100.00;101832.28;6039157;29;20241;-68
2023/08/18 04:44:04;;;;;;;8.82;2.55;;;;;;;18.86;100.00;101835.03;6060007;29;20257;-68
2023/08/18 04:47:28;;;;;;;4.40;2.90;;;;;;;18.78;100.00;101843.19;6047144;29;20241;-68
2023/08/18 04:50:49;;;;;;;4.75;4.10;;;;;;;18.84;100.00;101839.81;6032711;29;20858;-67
2023/08/18 04:54:11;;;;;;;6.50;3.78;;;;;;;18.89;100.00;101845.63;6049220;29;20328;-67
2023/08/18 04:57:32;;;;;;;5.18;4.47;;;;;;;18.87;100.00;101844.09;6041870;29;20236;-68
2023/08/18 05:00:53;;;;;;;4.22;3.83;;;;;;;18.90;100.00;101849.22;6022588;29;20226;-68
2023/08/18 05:04:16;;;;;;;4.13;3.17;;;;;;;18.97;100.00;101848.38;6034726;29;20229;-67
2023/08/18 05:07:40;;;;;;;5.20;4.00;;;;;;;19.01;100.00;101844.28;6039488;29;20330;-68
2023/08/18 05:11:05;;;;;;;4.65;3.95;;;;;;;19.00;100.00;101848.03;6033414;29;21990;-68
2023/08/18 05:14:26;;;;;;;5.32;3.53;;;;;;;19.12;100.00;101846.72;6040755;29;20233;-68
2023/08/18 05:17:49;;;;;;;6.60;4.20;;;;;;;19.49;100.00;101840.81;6046448;29;20241;-73
2023/08/18 05:21:11;;;;;;;3.58;3.28;;;;;;;19.80;100.00;101840.97;6049950;29;20237;-72
2023/08/18 05:24:31;;;;;;;5.38;4.13;;;;;;;19.79;99.14;101844.75;6039619;29;20237;-71
2023/08/18 05:27:52;;;;;;;6.38;3.03;;;;;;;19.96;98.93;101838.22;6044214;29;20254;-73
2023/08/18 05:31:13;;;;;;;4.47;3.60;;;;;;;20.05;97.25;101834.44;6040954;29;20644;-74
2023/08/18 05:34:34;;;;;;;10.40;4.18;;;;;;;20.06;96.61;101841.63;6043709;29;20237;-73
2023/08/18 05:37:58;;;;;;;4.40;3.53;;;;;;;20.05;96.43;101837.16;6048991;29;20332;-73
2023/08/18 05:41:19;;;;;;;8.25;5.10;;;;;;;19.88;96.65;101846.44;6043075;29;20258;-67
2023/08/18 05:44:42;;;;;;;4.35;3.95;;;;;;;19.82;97.23;101852.59;6041965;29;20265;-67
2023/08/18 05:48:03;;;;;;;9.10;6.28;;;;;;;19.75;97.52;101860.66;6057811;29;20779;-67
2023/08/18 05:51:27;;;;;;;8.52;5.07;;;;;;;19.74;97.95;101852.59;6055650;29;20323;-67
2023/08/18 05:54:49;;;;;;;9.43;5.18;;;;;;;19.73;98.10;101859.13;6029487;29;20309;-67
2023/08/18 05:58:10;;;;;;;6.97;4.22;;;;;;;19.69;98.79;101860.50;6058335;29;20245;-66
2023/08/18 06:01:31;;;;;;;5.72;4.90;;;;;;;19.76;98.88;101854.16;6054988;29;20233;-67
2023/08/18 06:04:52;;;;;;;6.38;3.80;;;;;;;19.70;98.74;101848.50;6046139;29;20225;-68
2023/08/18 06:08:13;;;;;;;7.00;5.03;;;;;;;19.80;98.79;101843.69;6048490;29;20501;-68
2023/08/18 06:11:35;;;;;;;6.22;4.55;;;;;;;19.83;98.70;101855.19;6054879;29;20324;-67
2023/08/18 06:14:56;;;;;;;9.43;4.93;;;;;;;19.89;98.71;101849.00;6049193;29;20237;-66
2023/08/18 06:18:18;;;;;;;6.70;5.47;;;;;;;19.95;98.51;101861.13;6040969;29;20589;-67
2023/08/18 06:21:39;;;;;;;5.38;4.35;;;;;;;20.02;98.33;101859.44;6034894;29;20237;-68
2023/08/18 06:25:00;;;;;;;7.85;4.53;;;;;;;20.09;98.23;101854.94;6030531;29;20234;-67
2023/08/18 06:28:22;;;;;;;4.85;4.45;;;;;;;20.18;97.55;101851.19;6031966;29;20264;-67
2023/08/18 06:31:43;;;;;;;7.78;4.35;;;;;;;20.16;97.49;101855.13;6050874;29;21057;-68
2023/08/18 06:35:05;;;;;;;7.43;4.80;;;;;;;20.06;97.51;101857.19;6045031;29;20754;-68
2023/08/18 06:38:26;;;;;;;5.07;4.57;;;;;;;20.14;97.61;101852.56;6030032;29;20245;-68
2023/08/18 06:41:47;;;;;;;5.05;4.28;;;;;;;20.18;97.30;101853.91;6043328;29;20260;-67
2023/08/18 06:45:10;;;;;;;6.72;5.07;;;;;;;20.15;97.51;101862.47;6028013;29;20257;-67
2023/08/18 06:48:32;;;;;;;5.93;5.25;;;;;;;20.23;97.16;101856.16;6052799;29;20228;-68
2023/08/18 06:51:53;;;;;;;11.93;5.65;;;;;;;20.22;97.34;101857.19;6040808;29;20245;-68
2023/08/18 06:55:14;;;;;;;5.35;4.85;;;;;;;20.14;97.04;101857.16;6037700;29;20237;-67
2023/08/18 06:58:35;;;;;;;5.15;4.22;;;;;;;20.17;97.32;101863.16;6039334;29;20288;-67
2023/08/18 07:01:57;;;;;;;9.90;5.57;;;;;;;20.13;97.54;101866.44;6035614;29;20619;-67
2023/08/18 07:05:18;;;;;;;8.82;6.00;;;;;;;20.06;97.81;101865.41;6049668;29;20236;-68
2023/08/18 07:08:40;;;;;;;5.15;4.75;;;;;;;20.21;97.96;101860.97;6041310;29;20233;-67
2023/08/18 07:12:01;;;;;;;7.97;5.68;;;;;;;20.21;97.66;101859.09;6060478;29;20244;-67
2023/08/18 07:15:21;;;;;;;5.97;5.30;;;;;;;20.38;97.64;101866.22;6047297;29;20619;-67
2023/08/18 07:18:44;;;;;;;5.60;4.85;;;;;;;20.49;97.07;101871.31;6057507;29;20233;-68
2023/08/18 07:22:05;;;;;;;6.03;4.93;;;;;;;20.54;96.43;101868.06;6039405;29;20238;-67
2023/08/18 07:25:26;;;;;;;9.38;6.78;;;;;;;20.63;95.98;101870.59;6052987;29;20245;-68
2023/08/18 07:28:48;;;;;;;9.50;6.40;;;;;;;20.64;95.60;101883.28;6060825;29;20311;-68
2023/08/18 07:32:08;;;;;;;6.85;6.07;;;;;;;20.79;95.44;101879.78;6052318;29;20336;-68
2023/08/18 07:35:31;;;;;;;8.00;6.35;;;;;;;20.82;94.95;101883.00;6032706;29;20244;-67
2023/08/18 07:38:52;;;;;;;6.63;5.53;;;;;;;20.76;94.62;101882.88;6046069;29;20241;-68
2023/08/18 07:42:12;;;;;;;5.35;4.95;;;;;;;20.60;95.30;101881.91;6055166;29;20599;-65
2023/08/18 07:45:33;;;;;;;7.30;5.93;;;;;;;20.82;95.30;101873.94;6050809;29;20241;-68
2023/08/18 07:48:54;;;;;;;4.95;4.45;;;;;;;21.05;94.56;101872.97;6042818;29;20260;-68
2023/08/18 07:52:16;;;;;;;7.47;4.72;;;;;;;21.07;94.11;101868.19;6058566;29;20339;-68
2023/08/18 07:55:37;;;;;;;4.88;4.38;;;;;;;20.97;94.43;101875.75;6047647;29;20572;-67
2023/08/18 07:58:58;;;;;;;6.55;4.47;;;;;;;21.13;94.01;101870.19;6044445;29;20245;-68
2023/08/18 08:02:19;;;;;;;7.25;6.13;;;;;;;20.95;93.98;101876.94;6046960;29;20242;-68
2023/08/18 08:05:40;;;;;;;6.85;5.38;;;;;;;21.00;94.34;101875.41;6036887;29;20336;-68
2023/08/18 08:09:03;;;;;;;5.50;4.65;;;;;;;21.14;93.83;101873.78;6043583;29;20233;-67
2023/08/18 08:12:24;;;;;;;5.65;4.90;;;;;;;21.35;93.13;101882.25;6051093;29;20240;-68
2023/08/18 08:15:45;;;;;;;5.78;5.28;;;;;;;21.25;92.59;101876.13;6055185;29;20241;-68
2023/08/18 08:19:06;;;;;;;6.38;5.78;;;;;;;21.09;93.26;101876.25;6048810;29;20665;-67
2023/08/18 08:22:28;;;;;;;7.22;5.95;;;;;;;21.24;93.00;101877.16;6061903;29;20244;-67
2023/08/18 08:25:50;;;;;;;6.13;5.53;;;;;;;21.48;92.59;101882.50;6051830;29;20349;-68
2023/08/18 08:29:11;;;;;;;5.70;5.15;;;;;;;21.48;91.82;101891.59;6050631;29;20233;-67
2023/08/18 08:32:31;;;;;;;5.45;4.85;;;;;;;21.70;91.64;101875.28;6057224;29;20500;-67
2023/08/18 08:35:52;;;;;;;6.43;5.78;;;;;;;21.75;91.27;101879.19;6047839;29;20236;-68
2023/08/18 08:39:13;;;;;;;5.88;4.82;;;;;;;21.83;90.89;101883.78;6053551;29;20237;-67
2023/08/18 08:42:35;;;;;;;7.03;5.63;;;;;;;21.80;90.79;101882.22;6059644;29;20237;-69
2023/08/18 08:45:59;;;;;;;9.77;5.32;;;;;;;21.83;90.58;101887.41;6047810;29;20625;-68
2023/08/18 08:49:21;;;;;;;4.53;4.13;;;;;;;21.87;90.64;101885.97;6051117;29;20233;-68
2023/08/18 08:52:43;;;;;;;10.38;6.63;;;;;;;21.01;91.35;101884.44;6060665;29;20240;-68
2023/08/18 08:56:07;;;;;;;6.70;6.10;;;;;;;21.37;92.18;101885.66;6040403;29;20245;-68
2023/08/18 08:59:29;;;;;;;6.82;5.25;;;;;;;21.47;92.70;101883.53;6052549;29;20333;-67
2023/08/18 09:02:50;;;;;;;7.68;5.85;;;;;;;21.83;92.27;101884.66;6033976;29;20238;-67
2023/08/18 09:06:11;;;;;;;7.75;5.35;;;;;;;22.17;90.73;101887.75;6060590;29;20671;-68
2023/08/18 09:09:32;;;;;;;5.70;5.13;;;;;;;22.27;89.73;101880.09;6051203;29;20237;-68
2023/08/18 09:12:53;;;;;;;5.30;4.72;;;;;;;22.67;88.79;101873.31;6061682;29;20249;-68
2023/08/18 09:16:16;;;;;;;6.38;5.78;;;;;;;22.59;87.72;101875.31;6049083;29;20249;-66
2023/08/18 09:19:38;;;;;;;9.00;5.35;;;;;;;22.73;87.29;101863.44;6057031;29;20244;-68
2023/08/18 09:22:59;;;;;;;7.55;5.97;;;;;;;23.01;86.53;101861.69;6062568;29;20241;-67
2023/08/18 09:26:19;;;;;;;6.85;5.40;;;;;;;23.46;84.70;101855.03;6050306;29;20698;-68
2023/08/18 09:29:40;;;;;;;5.97;4.75;;;;;;;23.64;83.11;101853.53;6051474;29;20289;-68
2023/08/18 09:33:03;;;;;;;6.07;5.18;;;;;;;24.11;81.62;101838.28;6063586;29;20499;-68
2023/08/18 09:36:26;;;;;;;5.78;5.07;;;;;;;24.55;80.29;101838.78;6041738;29;20233;-68
2023/08/18 09:39:47;;;;;;;4.68;4.22;;;;;;;24.61;79.46;101836.00;6048501;29;20253;-68
2023/08/18 09:43:08;;;;;;;7.38;5.53;;;;;;;25.19;78.20;101829.06;6063737;29;20237;-66
2023/08/18 09:46:32;;;;;;;5.70;4.57;;;;;;;25.07;77.58;101830.75;6061670;29;20316;-68
2023/08/18 09:49:55;;;;;;;5.88;5.38;;;;;;;24.79;77.81;101826.38;6034337;29;20503;-67
2023/08/18 09:53:18;;;;;;;4.18;3.70;;;;;;;25.19;77.39;101834.59;6041884;29;20241;-68
2023/08/18 09:56:40;;;;;;;5.82;5.20;;;;;;;25.08;77.63;101820.53;6043994;29;20237;-68
2023/08/18 10:00:04;;;;;;;6.13;5.53;;;;;;;24.95;78.04;101815.81;6041354;29;20233;-68
2023/08/18 10:03:35;;;;;;;4.93;4.38;;;;;;;25.09;78.27;101817.59;6042166;29;20264;-68
2023/08/18 10:06:58;;;;;;;5.47;4.97;;;;;;;25.53;76.73;101807.94;6052521;29;20316;-66
2023/08/18 10:10:19;;;;;;;5.97;5.45;;;;;;;25.61;76.93;101804.94;6044653;29;20316;-66
2023/08/18 10:13:40;;;;;;;5.28;4.57;;;;;;;25.53;77.26;101802.41;6042204;29;20241;-69
2023/08/18 10:17:03;;;;;;;4.40;4.10;;;;;;;25.63;76.96;101811.13;6042161;29;20237;-68
2023/08/18 10:20:26;;;;;;;6.55;5.13;;;;;;;25.81;75.81;101811.31;6046369;29;20232;-67
2023/08/18 10:23:48;;;;;;;3.88;3.28;;;;;;;26.02;75.25;101805.56;6045886;29;20242;-67
2023/08/18 10:27:12;;;;;;;6.95;5.00;;;;;;;26.02;74.88;101800.03;6042960;29;20246;-68
2023/08/18 10:30:33;;;;;;;5.75;4.70;;;;;;;26.22;74.31;101794.50;6043440;29;20241;-68
2023/08/18 10:33:55;;;;;;;7.38;4.53;;;;;;;26.46;74.23;101797.41;6046653;29;20690;-69
2023/08/18 10:37:16;;;;;;;5.10;4.60;;;;;;;26.80;73.21;101796.25;6053089;29;20264;-68
2023/08/18 10:40:39;;;;;;;5.75;5.05;;;;;;;26.75;72.72;101793.28;6043263;29;20267;-69
2023/08/18 10:44:00;;;;;;;8.13;4.57;;;;;;;26.70;72.81;101790.31;6048294;29;20232;-69
2023/08/18 10:47:31;;;;;;;6.88;4.72;;;;;;;26.49;72.81;101790.59;6053521;29;20233;-68
2023/08/18 10:50:51;;;;;;;6.18;4.85;;;;;;;26.21;74.20;101788.13;6049832;29;20228;-67
2023/08/18 10:54:13;;;;;;;5.47;5.07;;;;;;;26.66;73.28;101792.66;6045237;29;20324;-68
2023/08/18 10:57:37;;;;;;;4.28;3.97;;;;;;;27.10;72.70;101788.22;6055506;29;20260;-67
2023/08/18 11:00:58;;;;;;;5.63;4.82;;;;;;;27.42;70.87;101781.63;6029766;29;20423;-67
2023/08/18 11:04:20;;;;;;;4.47;4.18;;;;;;;27.38;71.02;101785.91;6042007;29;20256;-67
2023/08/18 11:07:40;;;;;;;4.85;3.95;;;;;;;27.58;70.10;101781.91;6041335;29;20612;-67
2023/08/18 11:11:01;;;;;;;5.60;4.10;;;;;;;27.79;69.79;101783.44;6039704;29;20233;-68
2023/08/18 11:14:23;;;;;;;4.18;3.78;;;;;;;28.22;68.26;101773.25;6014574;29;20241;-67
2023/08/18 11:17:44;;;;;;;4.63;4.22;;;;;;;28.07;67.92;101772.75;6044317;29;20317;-68
2023/08/18 11:21:06;;;;;;;4.88;4.47;;;;;;;28.27;67.71;101772.53;6049708;29;20257;-69
2023/08/18 11:24:27;;;;;;;6.50;5.05;;;;;;;28.37;67.32;101768.13;6056286;29;20237;-68
2023/08/18 11:27:49;;;;;;;5.20;4.35;;;;;;;28.85;66.25;101767.38;6053794;29;20233;-68
2023/08/18 11:31:13;;;;;;;5.78;5.22;;;;;;;28.61;66.95;101762.75;6035032;29;20237;-67
2023/08/18 11:34:34;;;;;;;4.70;3.80;;;;;;;28.89;66.61;101763.03;6048587;29;20620;-68
2023/08/18 11:37:56;;;;;;;3.97;3.65;;;;;;;29.45;64.70;101751.50;6053443;29;20253;-68
2023/08/18 11:41:17;;;;;;;5.07;4.57;;;;;;;29.03;65.16;101756.19;6048977;29;20233;-68
2023/08/18 11:44:39;;;;;;;5.85;5.35;;;;;;;29.23;65.45;101759.53;6051406;29;20234;-67
2023/08/18 11:48:03;;;;;;;5.60;4.18;;;;;;;29.90;63.49;101769.34;6054001;29;20253;-69
2023/08/18 11:51:24;;;;;;;4.70;3.88;;;;;;;30.40;62.64;101769.69;6038189;29;20230;-68
2023/08/18 11:54:46;;;;;;;4.72;4.32;;;;;;;30.80;61.48;101765.00;6035375;29;20238;-69
2023/08/18 11:58:10;;;;;;;4.68;4.28;;;;;;;30.98;59.39;101766.78;6060136;29;22150;-68
2023/08/18 12:01:33;;;;;;;7.20;4.00;;;;;;;31.69;57.94;101755.81;6050271;29;20603;-68
2023/08/18 12:04:57;;;;;;;4.63;3.95;;;;;;;33.13;54.62;101760.06;6049274;29;20229;-68
2023/08/18 12:08:18;;;;;;;7.80;5.00;;;;;;;35.04;50.70;101753.00;6062759;29;20241;-68
2023/08/18 12:11:39;;;;;;;6.53;5.93;;;;;;;36.43;47.49;101760.81;6061347;29;20241;-68
2023/08/18 12:15:00;;;;;;;8.93;5.85;;;;;;;37.14;44.87;101747.25;6049009;29;20233;-66
2023/08/18 12:18:21;;;;;;;4.95;4.47;;;;;;;37.59;43.74;101754.56;6027867;29;20229;-68
2023/08/18 12:21:43;;;;;;;10.07;9.00;;;;;;;38.39;42.85;101745.28;6050804;29;20240;-68
2023/08/18 12:25:06;;;;;;;8.57;7.75;;;;;;;38.94;42.54;101745.72;6036677;29;20237;-68
2023/08/18 12:28:27;;;;;;;8.18;7.32;;;;;;;38.57;42.55;101743.69;6035906;29;20324;-68
2023/08/18 12:31:47;;;;;;;6.95;5.88;;;;;;;38.89;42.56;101740.97;6047367;29;20241;-68
2023/08/18 12:35:10;;;;;;;10.50;9.52;;;;;;;36.48;46.13;101735.53;6034138;29;20253;-69
2023/08/18 12:38:33;;;;;;;11.20;9.10;;;;;;;36.69;46.30;101727.84;6037818;29;20544;-69
2023/08/18 12:41:54;;;;;;;5.95;5.38;;;;;;;35.80;47.57;101719.38;6058730;29;20241;-67
2023/08/18 12:45:15;;;;;;;7.28;5.35;;;;;;;36.50;45.57;101718.38;6038076;29;20237;-67
2023/08/18 12:48:36;;;;;;;13.30;8.68;;;;;;;37.86;43.62;101725.88;6046574;29;20650;-67
2023/08/18 12:51:57;;;;;;;7.65;7.03;;;;;;;38.63;42.50;101711.44;6056173;29;20237;-68
2023/08/18 12:55:19;;;;;;;10.50;9.70;;;;;;;39.22;42.55;101726.97;6051174;29;20245;-68
2023/08/18 12:58:40;;;;;;;4.88;4.38;;;;;;;38.80;42.28;101722.22;6042069;29;20612;-67
2023/08/18 13:02:03;;;;;;;7.57;6.80;;;;;;;38.75;42.00;101714.69;6038873;29;20237;-68
2023/08/18 13:05:24;;;;;;;8.50;6.90;;;;;;;39.27;42.36;101716.44;6008211;29;20238;-67
2023/08/18 13:08:45;;;;;;;12.85;11.70;;;;;;;39.02;41.62;101716.81;6049259;29;20236;-68
2023/08/18 13:12:07;;;;;;;9.23;8.32;;;;;;;39.07;41.83;101717.56;6064991;29;20257;-67
2023/08/18 13:15:29;;;;;;;4.53;3.85;;;;;;;38.14;42.43;101713.72;6050316;29;20703;-68
2023/08/18 13:18:50;;;;;;;5.15;4.65;;;;;;;38.13;42.82;101717.69;6052580;29;20248;-67
2023/08/18 13:22:11;;;;;;;4.53;4.22;;;;;;;38.92;42.56;101703.72;6063593;29;20233;-67
2023/08/18 13:25:34;;;;;;;4.65;4.25;;;;;;;38.59;43.57;101701.91;6052205;29;20256;-68
2023/08/18 13:28:56;;;;;;;4.65;4.25;;;;;;;38.52;43.13;101700.59;6052080;29;20237;-67
2023/08/18 13:32:17;;;;;;;4.65;4.32;;;;;;;38.46;42.47;101697.00;6056549;29;20233;-67
2023/08/18 13:35:38;;;;;;;6.88;6.28;;;;;;;39.73;41.75;101691.06;6057502;29;20245;-68
2023/08/18 13:38:59;;;;;;;6.78;6.18;;;;;;;39.09;42.03;101687.06;6049103;29;20236;-67
2023/08/18 13:42:21;;;;;;;5.55;5.05;;;;;;;38.12;43.36;101673.72;6064866;29;20241;-67
2023/08/18 13:45:43;;;;;;;5.63;5.22;;;;;;;38.58;43.31;101679.63;6056099;29;20233;-68
2023/08/18 13:49:04;;;;;;;4.78;4.32;;;;;;;39.04;42.54;101672.19;6059807;29;20245;-67
2023/08/18 13:52:25;;;;;;;3.58;3.28;;;;;;;39.05;43.11;101685.16;6051316;29;20249;-69
2023/08/18 13:55:46;;;;;;;4.97;4.07;;;;;;;37.63;43.53;101679.63;6044669;29;20241;-67
2023/08/18 13:59:07;;;;;;;4.72;4.43;;;;;;;35.72;47.36;101678.66;6048274;29;20233;-68
2023/08/18 14:02:29;;;;;;;8.65;7.88;;;;;;;36.05;48.18;101669.63;6056858;29;20591;-68
2023/08/18 14:05:50;;;;;;;8.07;7.28;;;;;;;37.50;45.56;101664.25;6045722;29;20245;-67
2023/08/18 14:09:11;;;;;;;8.73;7.82;;;;;;;35.11;49.17;101661.00;6047981;29;20237;-67
2023/08/18 14:12:31;;;;;;;7.00;6.50;;;;;;;33.79;51.56;101660.78;6053848;29;20603;-68
2023/08/18 14:15:52;;;;;;;7.25;6.60;;;;;;;35.93;48.54;101657.84;6046086;29;20237;-68
2023/08/18 14:19:16;;;;;;;5.78;5.10;;;;;;;36.57;47.50;101659.88;6052180;29;20248;-67
2023/08/18 14:22:37;;;;;;;5.32;4.93;;;;;;;35.58;48.12;101655.13;6058464;29;20229;-68
2023/08/18 14:25:58;;;;;;;5.30;4.85;;;;;;;35.86;48.21;101653.66;6043702;29;20245;-67
2023/08/18 14:29:20;;;;;;;4.82;3.97;;;;;;;35.09;50.18;101654.03;6029280;29;20567;-68
2023/08/18 14:32:41;;;;;;;5.22;4.35;;;;;;;34.70;50.88;101655.59;6043729;29;20252;-68
2023/08/18 14:36:06;;;;;;;6.55;5.90;;;;;;;33.86;51.99;101650.19;6016638;29;20336;-68
2023/08/18 14:39:27;;;;;;;14.20;12.00;;;;;;;33.88;52.75;101650.75;6043217;29;20319;-68
2023/08/18 14:42:48;;;;;;;8.68;7.68;;;;;;;33.20;54.58;101656.41;6046721;29;20234;-69
2023/08/18 14:46:09;;;;;;;9.48;8.75;;;;;;;32.81;56.13;101652.94;6041250;29;20241;-67
2023/08/18 14:49:31;;;;;;;10.40;9.50;;;;;;;31.92;57.74;101654.31;6050890;29;20242;-68
2023/08/18 14:52:54;;;;;;;7.32;6.63;;;;;;;31.54;59.30;101656.00;6050958;29;20416;-67
2023/08/18 14:56:14;;;;;;;11.25;8.70;;;;;;;31.97;58.91;101660.00;6047822;29;20233;-68
2023/08/18 14:59:36;;;;;;;8.20;7.25;;;;;;;31.73;58.89;101650.16;6045789;29;20237;-68
2023/08/18 15:02:57;;;;;;;6.28;5.68;;;;;;;31.86;59.53;101650.63;6041594;29;20247;-68
2023/08/18 15:06:18;;;;;;;6.00;5.50;;;;;;;31.32;60.92;101652.28;6046480;29;20237;-68
2023/08/18 15:09:44;;;;;;;8.07;6.70;;;;;;;31.33;61.14;101642.00;6049709;29;20245;-68
2023/08/18 15:13:05;;;;;;;7.90;7.10;;;;;;;31.25;62.06;101639.63;6057555;29;20245;-69
2023/08/18 15:16:25;;;;;;;6.40;4.97;;;;;;;31.45;61.26;101634.41;6033898;29;20245;-68
2023/08/18 15:19:46;;;;;;;6.38;5.13;;;;;;;31.42;60.85;101637.69;6056940;29;20244;-67
2023/08/18 15:23:07;;;;;;;5.80;5.40;;;;;;;31.55;61.52;101628.97;6065783;29;20234;-69
2023/08/18 15:26:29;;;;;;;8.05;7.32;;;;;;;31.21;62.00;101625.34;6055496;29;20872;-68
2023/08/18 15:29:52;;;;;;;7.85;7.15;;;;;;;31.40;62.40;101618.44;6056910;29;20257;-69
2023/08/18 15:33:12;;;;;;;8.57;7.78;;;;;;;31.52;62.50;101618.34;6052562;29;20229;-68
2023/08/18 15:36:33;;;;;;;8.95;7.65;;;;;;;31.64;61.63;101621.88;6060926;29;20261;-68